sensor_id;sensor_type;location;lat;lon;timestamp;temperature;humidity
3256;DHT22;1640;48.504;9.224;2023-03-01T00:01:03;-2.40;99.90
3256;DHT22;1640;48.504;9.224;2023-03-01T00:03:30;-2.50;99.90
3256;DHT22;1640;48.504;9.224;2023-03-01T00:05:58;-2.50;99.90
3256;DHT22;1640;48.504;9.224;2023-03-01T00:08:26;-2.50;99.90
3256;DHT22;1640;48.504;9.224;2023-03-01T00:11:00;-2.40;99.90
3256;DHT22;1640;48.504;9.224;2023-03-01T00:13:29;-2.40;99.90
3256;DHT22;1640;48.504;9.224;2023-03-01T00:15:56;-2.40;99.90
3256;DHT22;1640;48.504;9.224;2023-03-01T00:18:25;-2.40;99.90
3256;DHT22;1640;48.504;9.224;2023-03-01T00:20:54;-2.50;99.90
3256;DHT22;1640;48.504;9.224;2023-03-01T00:23:22;-2.60;99.90
3256;DHT22;1640;48.504;9.224;2023-03-01T00:25:50;-2.60;99.90
3256;DHT22;1640;48.504;9.224;2023-03-01T00:28:18;-2.60;99.90
3256;DHT22;1640;48.504;9.224;2023-03-01T00:30:47;-2.70;99.90
3256;DHT22;1640;48.504;9.224;2023-03-01T00:33:15;-2.70;99.90
3256;DHT22;1640;48.504;9.224;2023-03-01T00:35:44;-2.70;99.90
3256;DHT22;1640;48.504;9.224;2023-03-01T00:38:12;-2.80;99.90
3256;DHT22;1640;48.504;9.224;2023-03-01T00:40:39;-2.80;99.90
3256;DHT22;1640;48.504;9.224;2023-03-01T00:43:07;-2.90;99.90
3256;DHT22;1640;48.504;9.224;2023-03-01T00:45:36;-2.90;99.90
3256;DHT22;1640;48.504;9.224;2023-03-01T00:48:04;-2.90;99.90
3256;DHT22;1640;48.504;9.224;2023-03-01T00:50:32;-2.90;99.90
3256;DHT22;1640;48.504;9.224;2023-03-01T00:53:01;-2.90;99.90
3256;DHT22;1640;48.504;9.224;2023-03-01T00:55:29;-3.00;99.90
3256;DHT22;1640;48.504;9.224;2023-03-01T00:57:56;-3.00;99.90
3256;DHT22;1640;48.504;9.224;2023-03-01T01:00:24;-3.00;99.90
3256;DHT22;1640;48.504;9.224;2023-03-01T01:02:53;-3.00;99.90
3256;DHT22;1640;48.504;9.224;2023-03-01T01:05:20;-3.10;99.90
3256;DHT22;1640;48.504;9.224;2023-03-01T01:07:48;-3.10;99.90
3256;DHT22;1640;48.504;9.224;2023-03-01T01:10:17;-3.10;99.90
3256;DHT22;1640;48.504;9.224;2023-03-01T01:12:46;-3.10;99.90
3256;DHT22;1640;48.504;9.224;2023-03-01T01:15:13;-3.20;99.90
3256;DHT22;1640;48.504;9.224;2023-03-01T01:17:42;-3.20;99.90
3256;DHT22;1640;48.504;9.224;2023-03-01T01:20:11;-3.20;99.90
3256;DHT22;1640;48.504;9.224;2023-03-01T01:22:39;-3.20;99.90
3256;DHT22;1640;48.504;9.224;2023-03-01T01:25:07;-3.30;99.90
3256;DHT22;1640;48.504;9.224;2023-03-01T01:27:38;-3.30;99.90
3256;DHT22;1640;48.504;9.224;2023-03-01T01:30:10;-3.20;99.90
3256;DHT22;1640;48.504;9.224;2023-03-01T01:32:37;-3.20;99.90
3256;DHT22;1640;48.504;9.224;2023-03-01T01:35:06;-3.10;99.90
3256;DHT22;1640;48.504;9.224;2023-03-01T01:37:34;-3.00;99.90
3256;DHT22;1640;48.504;9.224;2023-03-01T01:40:03;-2.90;99.90
3256;DHT22;1640;48.504;9.224;2023-03-01T01:42:31;-2.70;99.90
3256;DHT22;1640;48.504;9.224;2023-03-01T01:45:29;-2.70;99.90
3256;DHT22;1640;48.504;9.224;2023-03-01T01:48:00;-2.60;99.90
3256;DHT22;1640;48.504;9.224;2023-03-01T01:50:31;-2.40;99.90
3256;DHT22;1640;48.504;9.224;2023-03-01T01:53:07;-2.30;99.90
3256;DHT22;1640;48.504;9.224;2023-03-01T01:55:37;-2.20;99.90
3256;DHT22;1640;48.504;9.224;2023-03-01T01:58:09;-2.00;99.90
3256;DHT22;1640;48.504;9.224;2023-03-01T02:00:39;-1.90;99.90
3256;DHT22;1640;48.504;9.224;2023-03-01T02:03:10;-1.80;99.90
3256;DHT22;1640;48.504;9.224;2023-03-01T02:05:46;-1.70;99.90
3256;DHT22;1640;48.504;9.224;2023-03-01T02:08:16;-1.70;99.90
3256;DHT22;1640;48.504;9.224;2023-03-01T02:10:46;-1.60;99.90
3256;DHT22;1640;48.504;9.224;2023-03-01T02:13:15;-1.50;99.90
3256;DHT22;1640;48.504;9.224;2023-03-01T02:15:45;-1.40;99.90
3256;DHT22;1640;48.504;9.224;2023-03-01T02:18:16;-1.40;99.90
3256;DHT22;1640;48.504;9.224;2023-03-01T02:20:52;-1.40;99.90
3256;DHT22;1640;48.504;9.224;2023-03-01T02:23:22;-1.40;99.90
3256;DHT22;1640;48.504;9.224;2023-03-01T02:25:54;-1.30;99.90
3256;DHT22;1640;48.504;9.224;2023-03-01T02:28:30;-1.30;99.90
3256;DHT22;1640;48.504;9.224;2023-03-01T02:30:58;-1.30;99.90
3256;DHT22;1640;48.504;9.224;2023-03-01T02:33:43;-1.10;99.90
3256;DHT22;1640;48.504;9.224;2023-03-01T02:36:15;-1.20;4.10
3256;DHT22;1640;48.504;9.224;2023-03-01T02:38:44;-1.10;2.40
3256;DHT22;1640;48.504;9.224;2023-03-01T02:41:15;-1.10;4.10
3256;DHT22;1640;48.504;9.224;2023-03-01T02:43:44;-1.00;5.90
3256;DHT22;1640;48.504;9.224;2023-03-01T02:46:15;-1.00;8.30
3256;DHT22;1640;48.504;9.224;2023-03-01T02:48:44;-1.00;9.40
3256;DHT22;1640;48.504;9.224;2023-03-01T02:51:23;-1.00;10.00
3256;DHT22;1640;48.504;9.224;2023-03-01T02:53:58;-1.00;10.50
3256;DHT22;1640;48.504;9.224;2023-03-01T02:56:30;-0.80;12.40
3256;DHT22;1640;48.504;9.224;2023-03-01T02:59:00;-0.80;14.60
3256;DHT22;1640;48.504;9.224;2023-03-01T03:01:28;-0.80;15.30
3256;DHT22;1640;48.504;9.224;2023-03-01T03:04:07;-0.80;14.90
3256;DHT22;1640;48.504;9.224;2023-03-01T03:06:36;-0.80;15.00
3256;DHT22;1640;48.504;9.224;2023-03-01T03:09:04;-0.90;11.80
3256;DHT22;1640;48.504;9.224;2023-03-01T03:11:32;-0.80;12.50
3256;DHT22;1640;48.504;9.224;2023-03-01T03:14:01;-0.80;14.30
3256;DHT22;1640;48.504;9.224;2023-03-01T03:16:28;-0.70;15.90
3256;DHT22;1640;48.504;9.224;2023-03-01T03:18:56;-0.70;16.70
3256;DHT22;1640;48.504;9.224;2023-03-01T03:21:31;-0.70;18.30
3256;DHT22;1640;48.504;9.224;2023-03-01T03:23:59;-0.80;15.70
3256;DHT22;1640;48.504;9.224;2023-03-01T03:26:27;-0.70;16.00
3256;DHT22;1640;48.504;9.224;2023-03-01T03:28:54;-0.70;16.70
3256;DHT22;1640;48.504;9.224;2023-03-01T03:31:24;-0.70;19.70
3256;DHT22;1640;48.504;9.224;2023-03-01T03:33:51;-0.70;17.80
3256;DHT22;1640;48.504;9.224;2023-03-01T03:36:21;-0.70;17.70
3256;DHT22;1640;48.504;9.224;2023-03-01T03:38:49;-0.70;15.30
3256;DHT22;1640;48.504;9.224;2023-03-01T03:41:17;-0.80;17.40
3256;DHT22;1640;48.504;9.224;2023-03-01T03:43:44;-0.70;14.20
3256;DHT22;1640;48.504;9.224;2023-03-01T03:46:12;-0.80;16.70
3256;DHT22;1640;48.504;9.224;2023-03-01T03:48:43;-0.80;13.60
3256;DHT22;1640;48.504;9.224;2023-03-01T03:51:12;-0.80;14.40
3256;DHT22;1640;48.504;9.224;2023-03-01T03:53:40;-0.90;12.70
3256;DHT22;1640;48.504;9.224;2023-03-01T03:56:08;-0.90;11.50
3256;DHT22;1640;48.504;9.224;2023-03-01T03:58:35;-0.90;8.70
3256;DHT22;1640;48.504;9.224;2023-03-01T04:01:03;-0.90;8.70
3256;DHT22;1640;48.504;9.224;2023-03-01T04:03:32;-0.90;9.80
3256;DHT22;1640;48.504;9.224;2023-03-01T04:06:03;-0.90;9.50
3256;DHT22;1640;48.504;9.224;2023-03-01T04:08:32;-0.90;8.20
3256;DHT22;1640;48.504;9.224;2023-03-01T04:11:02;-0.80;9.40
3256;DHT22;1640;48.504;9.224;2023-03-01T04:13:51;-0.80;9.70
3256;DHT22;1640;48.504;9.224;2023-03-01T04:16:19;-0.80;10.00
3256;DHT22;1640;48.504;9.224;2023-03-01T04:18:46;-0.70;11.60
3256;DHT22;1640;48.504;9.224;2023-03-01T04:21:15;-0.60;12.10
3256;DHT22;1640;48.504;9.224;2023-03-01T04:23:43;-0.70;14.20
3256;DHT22;1640;48.504;9.224;2023-03-01T04:26:11;-0.70;13.00
3256;DHT22;1640;48.504;9.224;2023-03-01T04:28:40;-0.70;13.70
3256;DHT22;1640;48.504;9.224;2023-03-01T04:31:10;-0.60;13.40
3256;DHT22;1640;48.504;9.224;2023-03-01T04:33:44;-0.50;12.90
3256;DHT22;1640;48.504;9.224;2023-03-01T04:36:13;-0.40;14.90
3256;DHT22;1640;48.504;9.224;2023-03-01T04:38:43;-0.40;16.80
3256;DHT22;1640;48.504;9.224;2023-03-01T04:41:15;-0.40;17.40
3256;DHT22;1640;48.504;9.224;2023-03-01T04:43:42;-0.40;16.30
3256;DHT22;1640;48.504;9.224;2023-03-01T04:46:12;-0.50;19.00
3256;DHT22;1640;48.504;9.224;2023-03-01T04:48:42;-0.50;15.80
3256;DHT22;1640;48.504;9.224;2023-03-01T04:51:11;-0.40;17.00
3256;DHT22;1640;48.504;9.224;2023-03-01T04:53:39;-0.40;17.50
3256;DHT22;1640;48.504;9.224;2023-03-01T04:56:08;-0.30;20.20
3256;DHT22;1640;48.504;9.224;2023-03-01T04:58:36;-0.30;21.90
3256;DHT22;1640;48.504;9.224;2023-03-01T05:01:09;-0.30;20.80
3256;DHT22;1640;48.504;9.224;2023-03-01T05:03:42;-0.40;22.40
3256;DHT22;1640;48.504;9.224;2023-03-01T05:06:10;-0.40;21.70
3256;DHT22;1640;48.504;9.224;2023-03-01T05:08:38;-0.40;21.40
3256;DHT22;1640;48.504;9.224;2023-03-01T05:11:08;-0.40;19.90
3256;DHT22;1640;48.504;9.224;2023-03-01T05:13:37;-0.40;19.50
3256;DHT22;1640;48.504;9.224;2023-03-01T05:16:05;-0.30;20.30
3256;DHT22;1640;48.504;9.224;2023-03-01T05:18:37;-0.40;20.30
3256;DHT22;1640;48.504;9.224;2023-03-01T05:21:07;-0.40;19.20
3256;DHT22;1640;48.504;9.224;2023-03-01T05:23:35;-0.40;20.30
3256;DHT22;1640;48.504;9.224;2023-03-01T05:26:04;-0.40;20.30
3256;DHT22;1640;48.504;9.224;2023-03-01T05:28:33;-0.30;19.70
3256;DHT22;1640;48.504;9.224;2023-03-01T05:31:01;-0.40;19.50
3256;DHT22;1640;48.504;9.224;2023-03-01T05:33:29;-0.30;19.40
3256;DHT22;1640;48.504;9.224;2023-03-01T05:35:59;-0.30;21.10
3256;DHT22;1640;48.504;9.224;2023-03-01T05:38:27;-0.30;20.90
3256;DHT22;1640;48.504;9.224;2023-03-01T05:40:55;-0.40;18.70
3256;DHT22;1640;48.504;9.224;2023-03-01T05:43:22;-0.40;19.00
3256;DHT22;1640;48.504;9.224;2023-03-01T05:45:51;-0.40;14.60
3256;DHT22;1640;48.504;9.224;2023-03-01T05:48:19;-0.40;16.50
3256;DHT22;1640;48.504;9.224;2023-03-01T05:50:46;-0.40;14.20
3256;DHT22;1640;48.504;9.224;2023-03-01T05:53:21;-0.30;15.00
3256;DHT22;1640;48.504;9.224;2023-03-01T05:55:52;-0.40;14.50
3256;DHT22;1640;48.504;9.224;2023-03-01T05:58:22;-0.40;13.30
3256;DHT22;1640;48.504;9.224;2023-03-01T06:00:53;-0.30;14.70
3256;DHT22;1640;48.504;9.224;2023-03-01T06:03:23;-0.40;13.30
3256;DHT22;1640;48.504;9.224;2023-03-01T06:05:56;-0.40;12.10
3256;DHT22;1640;48.504;9.224;2023-03-01T06:08:23;-0.30;12.30
3256;DHT22;1640;48.504;9.224;2023-03-01T06:10:53;-0.30;11.60
3256;DHT22;1640;48.504;9.224;2023-03-01T06:13:21;-0.30;12.60
3256;DHT22;1640;48.504;9.224;2023-03-01T06:15:50;-0.20;12.80
3256;DHT22;1640;48.504;9.224;2023-03-01T06:18:18;-0.20;14.60
3256;DHT22;1640;48.504;9.224;2023-03-01T06:20:52;-0.20;15.00
3256;DHT22;1640;48.504;9.224;2023-03-01T06:23:20;-0.20;13.70
3256;DHT22;1640;48.504;9.224;2023-03-01T06:25:47;-0.20;14.30
3256;DHT22;1640;48.504;9.224;2023-03-01T06:28:15;-0.10;15.40
3256;DHT22;1640;48.504;9.224;2023-03-01T06:30:43;-0.20;18.90
3256;DHT22;1640;48.504;9.224;2023-03-01T06:33:12;-0.20;18.90
3256;DHT22;1640;48.504;9.224;2023-03-01T06:35:39;-0.30;17.70
3256;DHT22;1640;48.504;9.224;2023-03-01T06:38:07;-0.40;16.20
3256;DHT22;1640;48.504;9.224;2023-03-01T06:40:34;-0.50;13.70
3256;DHT22;1640;48.504;9.224;2023-03-01T06:43:02;-0.50;7.40
3256;DHT22;1640;48.504;9.224;2023-03-01T06:45:30;-0.60;9.10
3256;DHT22;1640;48.504;9.224;2023-03-01T06:48:04;-0.70;6.50
3256;DHT22;1640;48.504;9.224;2023-03-01T06:50:34;-0.70;3.20
3256;DHT22;1640;48.504;9.224;2023-03-01T06:53:02;-0.70;1.10
3256;DHT22;1640;48.504;9.224;2023-03-01T06:55:30;-0.70;0.50
3256;DHT22;1640;48.504;9.224;2023-03-01T06:57:58;-0.70;1.20
3256;DHT22;1640;48.504;9.224;2023-03-01T07:00:27;-0.70;0.60
3256;DHT22;1640;48.504;9.224;2023-03-01T07:02:56;-0.70;0.60
3256;DHT22;1640;48.504;9.224;2023-03-01T07:05:25;-0.70;99.90
3256;DHT22;1640;48.504;9.224;2023-03-01T07:07:54;-0.60;0.50
3256;DHT22;1640;48.504;9.224;2023-03-01T07:10:22;-0.60;0.50
3256;DHT22;1640;48.504;9.224;2023-03-01T07:12:50;-0.60;0.50
3256;DHT22;1640;48.504;9.224;2023-03-01T07:15:17;-0.60;2.90
3256;DHT22;1640;48.504;9.224;2023-03-01T07:17:45;-0.60;2.80
3256;DHT22;1640;48.504;9.224;2023-03-01T07:20:14;-0.60;2.20
3256;DHT22;1640;48.504;9.224;2023-03-01T07:22:42;-0.50;3.00
3256;DHT22;1640;48.504;9.224;2023-03-01T07:25:11;-0.50;4.70
3256;DHT22;1640;48.504;9.224;2023-03-01T07:27:38;-0.50;6.40
3256;DHT22;1640;48.504;9.224;2023-03-01T07:30:07;-0.40;4.60
3256;DHT22;1640;48.504;9.224;2023-03-01T07:32:35;-0.40;6.20
3256;DHT22;1640;48.504;9.224;2023-03-01T07:35:03;-0.40;5.30
3256;DHT22;1640;48.504;9.224;2023-03-01T07:37:30;-0.30;5.90
3256;DHT22;1640;48.504;9.224;2023-03-01T07:39:58;-0.20;9.60
3256;DHT22;1640;48.504;9.224;2023-03-01T07:42:27;-0.10;14.00
3256;DHT22;1640;48.504;9.224;2023-03-01T07:44:54;-0.10;16.90
3256;DHT22;1640;48.504;9.224;2023-03-01T07:47:22;0.00;16.30
3256;DHT22;1640;48.504;9.224;2023-03-01T07:49:50;0.00;18.70
3256;DHT22;1640;48.504;9.224;2023-03-01T07:52:17;0.00;17.70
3256;DHT22;1640;48.504;9.224;2023-03-01T07:54:45;0.00;19.50
3256;DHT22;1640;48.504;9.224;2023-03-01T07:57:12;0.10;18.80
3256;DHT22;1640;48.504;9.224;2023-03-01T07:59:41;0.10;21.50
3256;DHT22;1640;48.504;9.224;2023-03-01T08:02:09;0.10;22.50
3256;DHT22;1640;48.504;9.224;2023-03-01T08:04:37;0.20;23.70
3256;DHT22;1640;48.504;9.224;2023-03-01T08:07:05;0.20;24.10
3256;DHT22;1640;48.504;9.224;2023-03-01T08:09:34;0.10;24.20
3256;DHT22;1640;48.504;9.224;2023-03-01T08:12:03;0.10;23.00
3256;DHT22;1640;48.504;9.224;2023-03-01T08:14:31;0.10;22.20
3256;DHT22;1640;48.504;9.224;2023-03-01T08:17:00;0.20;21.90
3256;DHT22;1640;48.504;9.224;2023-03-01T08:19:29;0.20;24.00
3256;DHT22;1640;48.504;9.224;2023-03-01T08:21:56;0.20;23.00
3256;DHT22;1640;48.504;9.224;2023-03-01T08:24:25;0.40;26.40
3256;DHT22;1640;48.504;9.224;2023-03-01T08:26:53;0.40;28.10
3256;DHT22;1640;48.504;9.224;2023-03-01T08:29:21;0.50;28.80
3256;DHT22;1640;48.504;9.224;2023-03-01T08:31:50;0.60;33.70
3256;DHT22;1640;48.504;9.224;2023-03-01T08:34:20;0.60;34.60
3256;DHT22;1640;48.504;9.224;2023-03-01T08:36:47;0.80;31.20
3256;DHT22;1640;48.504;9.224;2023-03-01T08:39:17;0.90;38.30
3256;DHT22;1640;48.504;9.224;2023-03-01T08:41:46;1.10;40.40
3256;DHT22;1640;48.504;9.224;2023-03-01T08:44:14;1.10;46.80
3256;DHT22;1640;48.504;9.224;2023-03-01T08:46:43;1.00;49.10
3256;DHT22;1640;48.504;9.224;2023-03-01T08:49:13;1.00;47.10
3256;DHT22;1640;48.504;9.224;2023-03-01T08:51:43;1.10;48.50
3256;DHT22;1640;48.504;9.224;2023-03-01T08:54:12;1.20;49.40
3256;DHT22;1640;48.504;9.224;2023-03-01T08:56:41;1.20;49.90
3256;DHT22;1640;48.504;9.224;2023-03-01T08:59:10;1.30;54.30
3256;DHT22;1640;48.504;9.224;2023-03-01T09:01:38;1.30;55.10
3256;DHT22;1640;48.504;9.224;2023-03-01T09:04:06;1.30;54.60
3256;DHT22;1640;48.504;9.224;2023-03-01T09:06:34;1.40;54.80
3256;DHT22;1640;48.504;9.224;2023-03-01T09:09:06;1.50;57.70
3256;DHT22;1640;48.504;9.224;2023-03-01T09:11:35;1.50;58.00
3256;DHT22;1640;48.504;9.224;2023-03-01T09:14:05;1.50;58.10
3256;DHT22;1640;48.504;9.224;2023-03-01T09:16:33;1.60;57.00
3256;DHT22;1640;48.504;9.224;2023-03-01T09:19:02;1.80;59.90
3256;DHT22;1640;48.504;9.224;2023-03-01T09:21:30;1.80;62.00
3256;DHT22;1640;48.504;9.224;2023-03-01T09:23:58;1.90;63.70
3256;DHT22;1640;48.504;9.224;2023-03-01T09:26:27;1.90;64.50
3256;DHT22;1640;48.504;9.224;2023-03-01T09:28:56;2.00;60.70
3256;DHT22;1640;48.504;9.224;2023-03-01T09:31:24;2.10;66.90
3256;DHT22;1640;48.504;9.224;2023-03-01T09:33:53;2.10;66.90
3256;DHT22;1640;48.504;9.224;2023-03-01T09:36:22;2.10;67.60
3256;DHT22;1640;48.504;9.224;2023-03-01T09:38:51;2.10;67.20
3256;DHT22;1640;48.504;9.224;2023-03-01T09:41:31;2.10;67.30
3256;DHT22;1640;48.504;9.224;2023-03-01T09:44:04;2.20;67.90
3256;DHT22;1640;48.504;9.224;2023-03-01T09:46:41;2.30;68.00
3256;DHT22;1640;48.504;9.224;2023-03-01T09:49:14;2.40;69.50
3256;DHT22;1640;48.504;9.224;2023-03-01T09:51:53;2.30;69.80
3256;DHT22;1640;48.504;9.224;2023-03-01T09:54:21;2.30;69.60
3256;DHT22;1640;48.504;9.224;2023-03-01T09:57:01;2.50;69.50
3256;DHT22;1640;48.504;9.224;2023-03-01T09:59:39;2.60;71.60
3256;DHT22;1640;48.504;9.224;2023-03-01T10:02:27;2.70;71.30
3256;DHT22;1640;48.504;9.224;2023-03-01T10:05:04;2.80;72.30
3256;DHT22;1640;48.504;9.224;2023-03-01T10:07:39;2.90;73.10
3256;DHT22;1640;48.504;9.224;2023-03-01T10:10:10;3.10;74.20
3256;DHT22;1640;48.504;9.224;2023-03-01T10:12:43;3.20;74.60
3256;DHT22;1640;48.504;9.224;2023-03-01T10:15:15;3.30;75.10
3256;DHT22;1640;48.504;9.224;2023-03-01T10:17:48;3.30;75.20
3256;DHT22;1640;48.504;9.224;2023-03-01T10:20:20;3.30;75.60
3256;DHT22;1640;48.504;9.224;2023-03-01T10:22:49;3.40;76.20
3256;DHT22;1640;48.504;9.224;2023-03-01T10:25:28;3.60;76.10
3256;DHT22;1640;48.504;9.224;2023-03-01T10:28:04;3.70;76.70
3256;DHT22;1640;48.504;9.224;2023-03-01T10:30:36;3.70;76.40
3256;DHT22;1640;48.504;9.224;2023-03-01T10:33:14;3.70;76.40
3256;DHT22;1640;48.504;9.224;2023-03-01T10:35:44;3.90;76.20
3256;DHT22;1640;48.504;9.224;2023-03-01T10:38:14;3.90;76.40
3256;DHT22;1640;48.504;9.224;2023-03-01T10:40:54;4.10;76.40
3256;DHT22;1640;48.504;9.224;2023-03-01T10:43:26;4.10;75.60
3256;DHT22;1640;48.504;9.224;2023-03-01T10:45:54;4.10;75.90
3256;DHT22;1640;48.504;9.224;2023-03-01T10:48:23;4.10;75.90
3256;DHT22;1640;48.504;9.224;2023-03-01T10:51:05;4.20;75.60
3256;DHT22;1640;48.504;9.224;2023-03-01T10:53:35;4.20;75.50
3256;DHT22;1640;48.504;9.224;2023-03-01T10:56:06;4.20;75.20
3256;DHT22;1640;48.504;9.224;2023-03-01T10:58:37;4.30;75.80
3256;DHT22;1640;48.504;9.224;2023-03-01T11:01:24;4.50;75.20
3256;DHT22;1640;48.504;9.224;2023-03-01T11:04:09;4.50;75.20
3256;DHT22;1640;48.504;9.224;2023-03-01T11:06:38;4.60;75.20
3256;DHT22;1640;48.504;9.224;2023-03-01T11:09:14;4.70;74.50
3256;DHT22;1640;48.504;9.224;2023-03-01T11:11:42;4.90;74.20
3256;DHT22;1640;48.504;9.224;2023-03-01T11:14:16;5.00;73.90
3256;DHT22;1640;48.504;9.224;2023-03-01T11:16:45;5.10;73.40
3256;DHT22;1640;48.504;9.224;2023-03-01T11:19:20;5.10;72.60
3256;DHT22;1640;48.504;9.224;2023-03-01T11:21:55;5.10;73.10
3256;DHT22;1640;48.504;9.224;2023-03-01T11:24:34;5.20;72.80
3256;DHT22;1640;48.504;9.224;2023-03-01T11:27:06;5.20;72.80
3256;DHT22;1640;48.504;9.224;2023-03-01T11:29:41;5.30;72.80
3256;DHT22;1640;48.504;9.224;2023-03-01T11:32:11;5.30;72.50
3256;DHT22;1640;48.504;9.224;2023-03-01T11:34:43;5.40;72.30
3256;DHT22;1640;48.504;9.224;2023-03-01T11:37:26;5.40;72.10
3256;DHT22;1640;48.504;9.224;2023-03-01T11:40:02;5.50;71.90
3256;DHT22;1640;48.504;9.224;2023-03-01T11:42:40;5.40;71.50
3256;DHT22;1640;48.504;9.224;2023-03-01T11:45:12;5.50;72.10
3256;DHT22;1640;48.504;9.224;2023-03-01T11:48:01;5.60;71.50
3256;DHT22;1640;48.504;9.224;2023-03-01T11:50:36;5.60;71.10
3256;DHT22;1640;48.504;9.224;2023-03-01T11:53:47;5.60;72.30
3256;DHT22;1640;48.504;9.224;2023-03-01T11:56:25;5.70;71.50
3256;DHT22;1640;48.504;9.224;2023-03-01T12:02:22;5.90;70.60
3256;DHT22;1640;48.504;9.224;2023-03-01T12:05:11;6.20;70.50
3256;DHT22;1640;48.504;9.224;2023-03-01T12:07:49;6.20;69.80
3256;DHT22;1640;48.504;9.224;2023-03-01T12:10:23;6.30;69.20
3256;DHT22;1640;48.504;9.224;2023-03-01T12:13:08;6.40;68.60
3256;DHT22;1640;48.504;9.224;2023-03-01T12:15:49;6.50;69.30
3256;DHT22;1640;48.504;9.224;2023-03-01T12:18:44;6.50;67.80
3256;DHT22;1640;48.504;9.224;2023-03-01T12:21:24;6.30;67.80
3256;DHT22;1640;48.504;9.224;2023-03-01T12:24:17;6.20;68.30
3256;DHT22;1640;48.504;9.224;2023-03-01T12:26:58;6.20;68.80
3256;DHT22;1640;48.504;9.224;2023-03-01T12:29:29;6.30;69.00
3256;DHT22;1640;48.504;9.224;2023-03-01T12:32:15;6.30;68.30
3256;DHT22;1640;48.504;9.224;2023-03-01T12:35:13;6.40;68.50
3256;DHT22;1640;48.504;9.224;2023-03-01T12:37:59;6.40;68.60
3256;DHT22;1640;48.504;9.224;2023-03-01T12:40:55;6.50;68.30
3256;DHT22;1640;48.504;9.224;2023-03-01T12:43:40;6.60;68.00
3256;DHT22;1640;48.504;9.224;2023-03-01T12:46:25;6.70;68.00
3256;DHT22;1640;48.504;9.224;2023-03-01T12:49:01;6.80;66.60
3256;DHT22;1640;48.504;9.224;2023-03-01T12:51:33;6.80;67.00
3256;DHT22;1640;48.504;9.224;2023-03-01T12:54:07;6.90;66.60
3256;DHT22;1640;48.504;9.224;2023-03-01T12:56:39;7.00;65.70
3256;DHT22;1640;48.504;9.224;2023-03-01T12:59:13;7.00;65.90
3256;DHT22;1640;48.504;9.224;2023-03-01T13:01:45;6.90;65.90
3256;DHT22;1640;48.504;9.224;2023-03-01T13:04:35;6.90;65.70
3256;DHT22;1640;48.504;9.224;2023-03-01T13:07:20;6.90;66.20
3256;DHT22;1640;48.504;9.224;2023-03-01T13:09:54;6.90;66.20
3256;DHT22;1640;48.504;9.224;2023-03-01T13:13:01;7.10;65.90
3256;DHT22;1640;48.504;9.224;2023-03-01T13:15:32;7.20;65.20
3256;DHT22;1640;48.504;9.224;2023-03-01T13:18:01;7.30;64.70
3256;DHT22;1640;48.504;9.224;2023-03-01T13:20:34;7.30;65.30
3256;DHT22;1640;48.504;9.224;2023-03-01T13:23:24;7.30;64.90
3256;DHT22;1640;48.504;9.224;2023-03-01T13:26:16;7.20;64.70
3256;DHT22;1640;48.504;9.224;2023-03-01T13:28:55;7.20;64.50
3256;DHT22;1640;48.504;9.224;2023-03-01T13:32:00;7.20;65.30
3256;DHT22;1640;48.504;9.224;2023-03-01T13:34:49;7.30;64.70
3256;DHT22;1640;48.504;9.224;2023-03-01T13:37:36;7.40;64.60
3256;DHT22;1640;48.504;9.224;2023-03-01T13:43:29;7.50;64.20
3256;DHT22;1640;48.504;9.224;2023-03-01T13:45:58;7.50;63.60
3256;DHT22;1640;48.504;9.224;2023-03-01T13:48:29;7.60;63.70
3256;DHT22;1640;48.504;9.224;2023-03-01T13:51:00;7.60;63.00
3256;DHT22;1640;48.504;9.224;2023-03-01T13:53:32;7.50;63.90
3256;DHT22;1640;48.504;9.224;2023-03-01T13:56:08;7.50;63.00
3256;DHT22;1640;48.504;9.224;2023-03-01T13:58:47;7.50;63.70
3256;DHT22;1640;48.504;9.224;2023-03-01T14:01:23;7.50;63.40
3256;DHT22;1640;48.504;9.224;2023-03-01T14:03:51;7.50;63.70
3256;DHT22;1640;48.504;9.224;2023-03-01T14:06:21;7.60;63.60
3256;DHT22;1640;48.504;9.224;2023-03-01T14:08:51;7.60;63.60
3256;DHT22;1640;48.504;9.224;2023-03-01T14:12:05;7.70;63.40
3256;DHT22;1640;48.504;9.224;2023-03-01T14:14:42;7.60;63.70
3256;DHT22;1640;48.504;9.224;2023-03-01T14:17:25;7.70;63.90
3256;DHT22;1640;48.504;9.224;2023-03-01T14:19:57;7.80;63.20
3256;DHT22;1640;48.504;9.224;2023-03-01T14:22:27;7.80;62.90
3256;DHT22;1640;48.504;9.224;2023-03-01T14:24:57;7.80;62.60
3256;DHT22;1640;48.504;9.224;2023-03-01T14:27:30;7.90;62.00
3256;DHT22;1640;48.504;9.224;2023-03-01T14:30:01;8.00;62.90
3256;DHT22;1640;48.504;9.224;2023-03-01T14:32:31;8.00;62.20
3256;DHT22;1640;48.504;9.224;2023-03-01T14:34:59;8.00;61.90
3256;DHT22;1640;48.504;9.224;2023-03-01T14:37:29;7.90;62.00
3256;DHT22;1640;48.504;9.224;2023-03-01T14:39:58;7.90;62.20
3256;DHT22;1640;48.504;9.224;2023-03-01T14:42:30;8.00;62.30
3256;DHT22;1640;48.504;9.224;2023-03-01T14:44:58;8.10;61.70
3256;DHT22;1640;48.504;9.224;2023-03-01T14:47:29;8.20;61.40
3256;DHT22;1640;48.504;9.224;2023-03-01T14:49:59;8.20;61.00
3256;DHT22;1640;48.504;9.224;2023-03-01T14:52:33;8.10;60.90
3256;DHT22;1640;48.504;9.224;2023-03-01T14:55:05;8.10;61.30
3256;DHT22;1640;48.504;9.224;2023-03-01T14:57:34;8.00;62.30
3256;DHT22;1640;48.504;9.224;2023-03-01T15:00:05;8.10;61.70
3256;DHT22;1640;48.504;9.224;2023-03-01T15:02:34;8.10;61.30
3256;DHT22;1640;48.504;9.224;2023-03-01T15:05:04;8.20;61.40
3256;DHT22;1640;48.504;9.224;2023-03-01T15:07:37;8.10;61.30
3256;DHT22;1640;48.504;9.224;2023-03-01T15:10:12;8.00;61.90
3256;DHT22;1640;48.504;9.224;2023-03-01T15:12:43;8.10;62.00
3256;DHT22;1640;48.504;9.224;2023-03-01T15:15:35;8.00;61.90
3256;DHT22;1640;48.504;9.224;2023-03-01T15:18:11;8.00;62.30
3256;DHT22;1640;48.504;9.224;2023-03-01T15:20:40;7.90;62.40
3256;DHT22;1640;48.504;9.224;2023-03-01T15:23:21;7.90;62.70
3256;DHT22;1640;48.504;9.224;2023-03-01T15:25:50;8.00;63.00
3256;DHT22;1640;48.504;9.224;2023-03-01T15:28:27;8.00;62.90
3256;DHT22;1640;48.504;9.224;2023-03-01T15:30:58;8.00;62.70
3256;DHT22;1640;48.504;9.224;2023-03-01T15:33:31;7.90;63.00
3256;DHT22;1640;48.504;9.224;2023-03-01T15:35:59;7.90;63.30
3256;DHT22;1640;48.504;9.224;2023-03-01T15:38:33;7.90;63.30
3256;DHT22;1640;48.504;9.224;2023-03-01T15:41:02;7.80;63.60
3256;DHT22;1640;48.504;9.224;2023-03-01T15:43:41;7.70;64.00
3256;DHT22;1640;48.504;9.224;2023-03-01T15:46:17;7.70;64.70
3256;DHT22;1640;48.504;9.224;2023-03-01T15:48:46;7.70;64.00
3256;DHT22;1640;48.504;9.224;2023-03-01T15:51:16;7.50;64.20
3256;DHT22;1640;48.504;9.224;2023-03-01T15:53:49;7.50;64.30
3256;DHT22;1640;48.504;9.224;2023-03-01T15:56:17;7.50;64.60
3256;DHT22;1640;48.504;9.224;2023-03-01T15:58:46;7.40;65.20
3256;DHT22;1640;48.504;9.224;2023-03-01T16:01:15;7.40;65.50
3256;DHT22;1640;48.504;9.224;2023-03-01T16:03:44;7.30;65.20
3256;DHT22;1640;48.504;9.224;2023-03-01T16:06:12;7.20;65.70
3256;DHT22;1640;48.504;9.224;2023-03-01T16:08:39;7.10;66.00
3256;DHT22;1640;48.504;9.224;2023-03-01T16:11:14;7.10;66.20
3256;DHT22;1640;48.504;9.224;2023-03-01T16:13:42;7.00;66.50
3256;DHT22;1640;48.504;9.224;2023-03-01T16:16:12;7.10;66.50
3256;DHT22;1640;48.504;9.224;2023-03-01T16:18:43;7.00;66.50
3256;DHT22;1640;48.504;9.224;2023-03-01T16:21:18;7.00;66.60
3256;DHT22;1640;48.504;9.224;2023-03-01T16:23:47;6.90;66.20
3256;DHT22;1640;48.504;9.224;2023-03-01T16:26:15;6.90;66.30
3256;DHT22;1640;48.504;9.224;2023-03-01T16:28:43;6.90;66.30
3256;DHT22;1640;48.504;9.224;2023-03-01T16:31:16;6.80;66.60
3256;DHT22;1640;48.504;9.224;2023-03-01T16:33:44;6.70;66.90
3256;DHT22;1640;48.504;9.224;2023-03-01T16:36:17;6.70;67.30
3256;DHT22;1640;48.504;9.224;2023-03-01T16:38:45;6.60;67.30
3256;DHT22;1640;48.504;9.224;2023-03-01T16:41:16;6.60;67.90
3256;DHT22;1640;48.504;9.224;2023-03-01T16:43:44;6.50;67.90
3256;DHT22;1640;48.504;9.224;2023-03-01T16:46:16;6.40;68.00
3256;DHT22;1640;48.504;9.224;2023-03-01T16:48:45;6.40;68.60